Time,TemperatureF,DewpointF,PressureIn,WindDirection,WindDirectionDegrees,WindSpeedMPH,WindSpeedGustMPH,Humidity,HourlyPrecipIn,Conditions,Clouds,dailyrainin,SoftwareType,DateUTC
2013-03-31 00:00:00,53.5,52.4,30.01,SSW,198,3.0,9.0,96,0.25,,,0.00,WUHU216DAVISVP2,2013-03-31 07:00:00,
2013-03-31 00:05:00,53.5,52.4,30.01,South,174,5.0,9.0,96,0.22,,,0.00,WUHU216DAVISVP2,2013-03-31 07:05:00,
2013-03-31 00:10:00,53.6,52.5,30.01,SSW,198,2.0,11.0,96,0.19,,,0.00,WUHU216DAVISVP2,2013-03-31 07:10:00,
2013-03-31 00:15:00,53.7,52.6,30.01,South,182,6.0,12.0,96,0.17,,,0.00,WUHU216DAVISVP2,2013-03-31 07:15:00,
2013-03-31 00:20:00,53.8,52.7,30.01,SSW,204,7.0,12.0,96,0.15,,,0.00,WUHU216DAVISVP2,2013-03-31 07:20:00,
2013-03-31 00:25:00,53.8,52.7,30.01,SSE,157,5.0,12.0,96,0.13,,,0.00,WUHU216DAVISVP2,2013-03-31 07:25:00,
2013-03-31 00:30:00,53.8,52.7,30.01,South,182,3.0,12.0,96,0.11,,,0.01,WUHU216DAVISVP2,2013-03-31 07:30:00,
2013-03-31 00:35:00,53.7,52.6,30.01,SW,223,3.0,19.0,96,0.08,,,0.01,WUHU216DAVISVP2,2013-03-31 07:35:00,
2013-03-31 00:40:00,53.6,52.5,30.00,SSE,161,3.0,19.0,96,0.04,,,0.01,WUHU216DAVISVP2,2013-03-31 07:40:00,
2013-03-31 00:45:00,53.6,52.5,30.01,SSE,163,5.0,19.0,96,0.04,,,0.01,WUHU216DAVISVP2,2013-03-31 07:45:00,
2013-03-31 00:50:00,53.5,52.4,30.00,SSW,211,6.0,13.0,96,0.03,,,0.01,WUHU216DAVISVP2,2013-03-31 07:50:00,
2013-03-31 00:55:00,53.5,52.4,30.00,SSW,200,5.0,13.0,96,0.02,,,0.01,WUHU216DAVISVP2,2013-03-31 07:55:00,
2013-03-31 01:00:00,53.3,52.2,30.00,SSE,157,4.0,13.0,96,0.01,,,0.01,WUHU216DAVISVP2,2013-03-31 08:00:00,
2013-03-31 01:05:00,53.2,52.1,30.00,South,175,3.0,13.0,96,0.01,,,0.01,WUHU216DAVISVP2,2013-03-31 08:05:00,
2013-03-31 01:10:00,53.1,52.0,30.00,SW,229,3.0,13.0,96,0.01,,,0.01,WUHU216DAVISVP2,2013-03-31 08:10:00,
2013-03-31 01:15:00,53.0,51.9,30.00,South,186,4.0,13.0,96,0.01,,,0.01,WUHU216DAVISVP2,2013-03-31 08:15:00,
2013-03-31 01:20:00,52.8,51.7,30.00,SSE,166,4.0,13.0,96,0.01,,,0.01,WUHU216DAVISVP2,2013-03-31 08:20:00,
2013-03-31 01:25:00,52.7,51.6,30.01,SSW,201,3.0,13.0,96,0.01,,,0.01,WUHU216DAVISVP2,2013-03-31 08:25:00,
2013-03-31 01:30:00,52.7,51.6,30.01,WSW,247,6.0,13.0,96,0.00,,,0.01,WUHU216DAVISVP2,2013-03-31 08:30:00,
2013-03-31 01:35:00,52.6,51.5,30.02,South,180,2.0,13.0,96,0.00,,,0.01,WUHU216DAVISVP2,2013-03-31 08:35:00,
2013-03-31 01:40:00,52.6,51.5,30.02,South,181,6.0,13.0,96,0.00,,,0.01,WUHU216DAVISVP2,2013-03-31 08:40:00,
2013-03-31 01:45:00,52.5,51.4,30.02,SSE,167,2.0,11.0,96,0.00,,,0.01,WUHU216DAVISVP2,2013-03-31 08:45:00,
2013-03-31 01:50:00,52.6,51.5,30.02,SE,139,4.0,11.0,96,0.00,,,0.01,WUHU216DAVISVP2,2013-03-31 08:50:00,
2013-03-31 01:55:00,52.6,51.5,30.02,SSW,211,7.0,8.0,96,0.00,,,0.01,WUHU216DAVISVP2,2013-03-31 08:55:00,
2013-03-31 02:00:00,52.6,51.5,30.02,South,178,1.0,8.0,96,0.00,,,0.01,WUHU216DAVISVP2,2013-03-31 09:00:00,
2013-03-31 02:05:00,52.5,51.4,30.02,SSE,164,3.0,8.0,96,0.00,,,0.01,WUHU216DAVISVP2,2013-03-31 09:05:00,
2013-03-31 02:10:00,52.5,51.4,30.02,SSW,210,4.0,8.0,96,0.00,,,0.01,WUHU216DAVISVP2,2013-03-31 09:10:00,
2013-03-31 02:15:00,52.6,51.5,30.02,SE,130,1.0,8.0,96,0.00,,,0.01,WUHU216DAVISVP2,2013-03-31 09:15:00,
2013-03-31 02:20:00,52.6,51.5,30.02,SSE,154,2.0,8.0,96,0.00,,,0.01,WUHU216DAVISVP2,2013-03-31 09:20:00,
2013-03-31 02:25:00,52.6,51.5,30.02,SSE,167,4.0,7.0,96,0.00,,,0.01,WUHU216DAVISVP2,2013-03-31 09:25:00,
2013-03-31 02:30:00,52.5,51.4,30.02,South,185,1.0,7.0,96,0.00,,,0.01,WUHU216DAVISVP2,2013-03-31 09:30:00,
2013-03-31 02:35:00,52.5,51.4,30.02,South,178,2.0,7.0,96,0.00,,,0.01,WUHU216DAVISVP2,2013-03-31 09:35:00,
2013-03-31 02:40:00,52.4,51.3,30.02,SSW,194,1.0,7.0,96,0.00,,,0.01,WUHU216DAVISVP2,2013-03-31 09:40:00,
2013-03-31 02:45:00,52.4,51.3,30.02,SSE,165,1.0,7.0,96,0.00,,,0.01,WUHU216DAVISVP2,2013-03-31 09:45:00,
2013-03-31 02:50:00,52.4,51.3,30.02,SSW,205,0.0,7.0,96,0.00,,,0.01,WUHU216DAVISVP2,2013-03-31 09:50:00,
2013-03-31 02:55:00,52.3,51.2,30.01,South,175,1.0,6.0,96,0.00,,,0.01,WUHU216DAVISVP2,2013-03-31 09:55:00,
2013-03-31 03:00:00,52.3,51.2,30.02,SSW,192,0.0,6.0,96,0.00,,,0.01,WUHU216DAVISVP2,2013-03-31 10:00:00,
2013-03-31 03:05:00,52.3,51.2,30.02,South,190,4.0,6.0,96,0.00,,,0.01,WUHU216DAVISVP2,2013-03-31 10:05:00,
2013-03-31 03:10:00,52.3,51.2,30.02,SSW,196,3.0,8.0,96,0.00,,,0.01,WUHU216DAVISVP2,2013-03-31 10:10:00,
2013-03-31 03:15:00,52.3,51.2,30.01,SSE,163,2.0,8.0,96,0.00,,,0.01,WUHU216DAVISVP2,2013-03-31 10:15:00,
2013-03-31 03:20:00,52.3,51.2,30.02,SSE,154,3.0,10.0,96,0.00,,,0.01,WUHU216DAVISVP2,2013-03-31 10:20:00,
2013-03-31 03:25:00,52.2,51.1,30.01,SSW,205,2.0,10.0,96,0.00,,,0.01,WUHU216DAVISVP2,2013-03-31 10:25:00,
2013-03-31 03:30:00,52.2,51.1,30.01,SSW,208,0.0,10.0,96,0.00,,,0.01,WUHU216DAVISVP2,2013-03-31 10:30:00,
2013-03-31 03:35:00,52.2,51.1,30.01,SSE,164,1.0,10.0,96,0.00,,,0.01,WUHU216DAVISVP2,2013-03-31 10:35:00,
2013-03-31 03:40:00,52.2,51.1,30.02,South,181,3.0,8.0,96,0.00,,,0.01,WUHU216DAVISVP2,2013-03-31 10:40:00,
2013-03-31 03:45:00,52.2,51.1,30.02,SW,215,2.0,8.0,96,0.00,,,0.01,WUHU216DAVISVP2,2013-03-31 10:45:00,
2013-03-31 03:50:00,52.1,51.0,30.02,South,173,1.0,8.0,96,0.00,,,0.01,WUHU216DAVISVP2,2013-03-31 10:50:00,
2013-03-31 03:55:00,52.1,51.2,30.02,SSW,193,1.0,7.0,97,0.00,,,0.01,WUHU216DAVISVP2,2013-03-31 10:55:00,
2013-03-31 04:00:00,52.1,51.2,30.02,South,180,0.0,5.0,97,0.00,,,0.01,WUHU216DAVISVP2,2013-03-31 11:00:00,
2013-03-31 04:05:00,52.1,51.0,30.02,SSE,165,1.0,5.0,96,0.00,,,0.01,WUHU216DAVISVP2,2013-03-31 11:05:00,
2013-03-31 04:10:00,52.0,51.1,30.02,South,177,0.0,5.0,97,0.00,,,0.01,WUHU216DAVISVP2,2013-03-31 11:10:00,
2013-03-31 04:15:00,52.0,51.1,30.02,South,178,0.0,4.0,97,0.00,,,0.01,WUHU216DAVISVP2,2013-03-31 11:15:00,
2013-03-31 04:20:00,52.0,51.1,30.02,South,178,0.0,2.0,97,0.00,,,0.01,WUHU216DAVISVP2,2013-03-31 11:20:00,
2013-03-31 04:25:00,52.0,51.1,30.02,South,178,0.0,2.0,97,0.00,,,0.01,WUHU216DAVISVP2,2013-03-31 11:25:00,
2013-03-31 04:30:00,52.0,51.1,30.02,South,178,0.0,1.0,97,0.00,,,0.01,WUHU216DAVISVP2,2013-03-31 11:30:00,
2013-03-31 04:35:00,52.0,51.1,30.02,South,178,0.0,1.0,97,0.00,,,0.01,WUHU216DAVISVP2,2013-03-31 11:35:00,
2013-03-31 04:40:00,52.0,51.1,30.02,South,178,0.0,1.0,97,0.00,,,0.01,WUHU216DAVISVP2,2013-03-31 11:40:00,
2013-03-31 04:45:00,52.0,51.1,30.02,South,178,0.0,0.0,97,0.00,,,0.01,WUHU216DAVISVP2,2013-03-31 11:45:00,
2013-03-31 04:50:00,52.0,51.1,30.02,South,178,0.0,0.0,97,0.00,,,0.01,WUHU216DAVISVP2,2013-03-31 11:50:00,
2013-03-31 04:55:00,52.0,51.1,30.02,South,178,0.0,0.0,97,0.00,,,0.01,WUHU216DAVISVP2,2013-03-31 11:55:00,
2013-03-31 05:00:00,52.0,51.1,30.02,South,178,0.0,0.0,97,0.00,,,0.01,WUHU216DAVISVP2,2013-03-31 12:00:00,
2013-03-31 05:05:00,52.0,51.1,30.03,South,178,0.0,0.0,97,0.00,,,0.01,WUHU216DAVISVP2,2013-03-31 12:05:00,
2013-03-31 05:10:00,52.0,51.1,30.03,South,178,0.0,0.0,97,0.00,,,0.01,WUHU216DAVISVP2,2013-03-31 12:10:00,
2013-03-31 05:15:00,52.0,51.1,30.03,South,178,0.0,0.0,97,0.00,,,0.01,WUHU216DAVISVP2,2013-03-31 12:15:00,
2013-03-31 05:20:00,52.1,51.2,30.03,South,178,0.0,0.0,97,0.00,,,0.01,WUHU216DAVISVP2,2013-03-31 12:20:00,
2013-03-31 05:25:00,52.1,51.2,30.03,South,178,0.0,0.0,97,0.00,,,0.01,WUHU216DAVISVP2,2013-03-31 12:25:00,
2013-03-31 05:30:00,52.1,51.2,30.03,South,178,0.0,0.0,97,0.00,,,0.01,WUHU216DAVISVP2,2013-03-31 12:30:00,
2013-03-31 05:35:00,52.1,51.2,30.02,South,178,0.0,0.0,97,0.00,,,0.01,WUHU216DAVISVP2,2013-03-31 12:35:00,
2013-03-31 05:40:00,52.2,51.4,30.03,South,178,0.0,0.0,97,0.00,,,0.01,WUHU216DAVISVP2,2013-03-31 12:40:00,
2013-03-31 05:45:00,52.2,51.4,30.03,South,178,0.0,0.0,97,0.00,,,0.01,WUHU216DAVISVP2,2013-03-31 12:45:00,
2013-03-31 05:50:00,52.2,51.4,30.03,South,178,0.0,0.0,97,0.00,,,0.01,WUHU216DAVISVP2,2013-03-31 12:50:00,
2013-03-31 05:55:00,52.2,51.4,30.03,South,178,0.0,1.0,97,0.00,,,0.01,WUHU216DAVISVP2,2013-03-31 12:55:00,
2013-03-31 06:00:00,52.3,51.5,30.03,South,178,0.0,1.0,97,0.00,,,0.01,WUHU216DAVISVP2,2013-03-31 13:00:00,
2013-03-31 06:05:00,52.3,51.4,30.03,South,178,0.0,1.0,97,0.00,,,0.01,WUHU216DAVISVP2,2013-03-31 13:05:00,
2013-03-31 06:10:00,52.3,51.4,30.03,South,178,0.0,1.0,97,0.00,,,0.01,WUHU216DAVISVP2,2013-03-31 13:10:00,
2013-03-31 06:15:00,52.3,51.4,30.03,South,178,0.0,0.0,97,0.00,,,0.01,WUHU216DAVISVP2,2013-03-31 13:15:00,
2013-03-31 06:20:00,52.2,51.3,30.03,South,178,0.0,0.0,97,0.00,,,0.01,WUHU216DAVISVP2,2013-03-31 13:20:00,
2013-03-31 06:25:00,52.1,51.2,30.03,South,178,0.0,0.0,97,0.00,,,0.01,WUHU216DAVISVP2,2013-03-31 13:25:00,
2013-03-31 06:30:00,51.9,51.0,30.03,South,178,0.0,0.0,97,0.00,,,0.01,WUHU216DAVISVP2,2013-03-31 13:30:00,
2013-03-31 06:35:00,51.8,50.7,30.03,South,178,0.0,0.0,96,0.00,,,0.01,WUHU216DAVISVP2,2013-03-31 13:35:00,
2013-03-31 06:40:00,51.6,50.5,30.03,South,178,0.0,0.0,96,0.00,,,0.01,WUHU216DAVISVP2,2013-03-31 13:40:00,
2013-03-31 06:45:00,51.4,50.3,30.03,South,178,0.0,0.0,96,0.00,,,0.01,WUHU216DAVISVP2,2013-03-31 13:45:00,
2013-03-31 06:50:00,51.3,50.2,30.03,South,178,0.0,0.0,96,0.00,,,0.01,WUHU216DAVISVP2,2013-03-31 13:50:00,
2013-03-31 06:55:00,51.2,50.1,30.03,South,178,0.0,0.0,96,0.00,,,0.01,WUHU216DAVISVP2,2013-03-31 13:55:00,
2013-03-31 07:00:00,51.2,50.4,30.03,South,178,0.0,0.0,97,0.00,,,0.01,WUHU216DAVISVP2,2013-03-31 14:00:00,
2013-03-31 07:05:00,51.3,50.5,30.03,South,178,0.0,0.0,97,0.00,,,0.01,WUHU216DAVISVP2,2013-03-31 14:05:00,
2013-03-31 07:10:00,51.3,50.5,30.04,South,178,0.0,0.0,97,0.00,,,0.01,WUHU216DAVISVP2,2013-03-31 14:10:00,
2013-03-31 07:15:00,51.3,50.5,30.04,South,178,0.0,0.0,97,0.00,,,0.01,WUHU216DAVISVP2,2013-03-31 14:15:00,
2013-03-31 07:20:00,51.3,50.5,30.04,South,178,0.0,0.0,97,0.00,,,0.01,WUHU216DAVISVP2,2013-03-31 14:20:00,
2013-03-31 07:25:00,51.4,50.6,30.04,South,178,0.0,1.0,97,0.00,,,0.01,WUHU216DAVISVP2,2013-03-31 14:25:00,
2013-03-31 07:30:00,51.4,50.5,30.04,South,178,0.0,1.0,97,0.00,,,0.01,WUHU216DAVISVP2,2013-03-31 14:30:00,
2013-03-31 07:35:00,51.4,50.5,30.04,South,178,0.0,1.0,97,0.00,,,0.01,WUHU216DAVISVP2,2013-03-31 14:35:00,
2013-03-31 07:40:00,51.5,50.6,30.04,South,178,0.0,1.0,97,0.00,,,0.01,WUHU216DAVISVP2,2013-03-31 14:40:00,
2013-03-31 07:45:00,51.5,50.6,30.04,South,178,0.0,1.0,97,0.00,,,0.01,WUHU216DAVISVP2,2013-03-31 14:45:00,
2013-03-31 07:50:00,51.6,50.7,30.04,South,178,0.0,1.0,97,0.00,,,0.01,WUHU216DAVISVP2,2013-03-31 14:50:00,
2013-03-31 07:55:00,51.7,50.8,30.04,South,178,0.0,0.0,97,0.00,,,0.01,WUHU216DAVISVP2,2013-03-31 14:55:00,
2013-03-31 08:00:00,51.7,50.8,30.04,South,178,0.0,0.0,97,0.00,,,0.01,WUHU216DAVISVP2,2013-03-31 15:00:00,
2013-03-31 08:05:00,51.8,50.9,30.05,South,178,0.0,0.0,97,0.00,,,0.01,WUHU216DAVISVP2,2013-03-31 15:05:00,
2013-03-31 08:10:00,51.9,51.1,30.05,South,178,0.0,1.0,97,0.00,,,0.01,WUHU216DAVISVP2,2013-03-31 15:10:00,
2013-03-31 08:15:00,51.9,51.0,30.05,South,178,0.0,1.0,97,0.00,,,0.01,WUHU216DAVISVP2,2013-03-31 15:15:00,
2013-03-31 08:20:00,51.9,51.0,30.04,South,178,0.0,1.0,97,0.00,,,0.01,WUHU216DAVISVP2,2013-03-31 15:20:00,
2013-03-31 08:25:00,52.1,51.3,30.04,South,178,0.0,1.0,97,0.00,,,0.01,WUHU216DAVISVP2,2013-03-31 15:25:00,
2013-03-31 08:30:00,52.2,51.3,30.04,SW,222,0.0,2.0,97,0.00,,,0.01,WUHU216DAVISVP2,2013-03-31 15:30:00,
2013-03-31 08:35:00,52.2,51.3,30.04,SW,222,0.0,2.0,97,0.00,,,0.01,WUHU216DAVISVP2,2013-03-31 15:35:00,
2013-03-31 08:40:00,52.3,51.5,30.04,SW,222,0.0,2.0,97,0.00,,,0.01,WUHU216DAVISVP2,2013-03-31 15:40:00,
2013-03-31 08:45:00,52.4,51.5,30.04,SW,222,0.0,2.0,97,0.00,,,0.01,WUHU216DAVISVP2,2013-03-31 15:45:00,
2013-03-31 08:50:00,52.6,51.7,30.04,SW,222,0.0,1.0,97,0.00,,,0.01,WUHU216DAVISVP2,2013-03-31 15:50:00,
2013-03-31 08:55:00,52.7,51.8,30.04,SW,222,0.0,1.0,97,0.00,,,0.01,WUHU216DAVISVP2,2013-03-31 15:55:00,
2013-03-31 09:00:00,52.8,51.9,30.04,SW,222,0.0,1.0,97,0.00,,,0.01,WUHU216DAVISVP2,2013-03-31 16:00:00,
2013-03-31 09:05:00,53.0,52.1,30.04,SW,222,0.0,1.0,97,0.00,,,0.01,WUHU216DAVISVP2,2013-03-31 16:05:00,
2013-03-31 09:10:00,53.2,52.3,30.04,South,186,0.0,2.0,97,0.00,,,0.01,WUHU216DAVISVP2,2013-03-31 16:10:00,
2013-03-31 09:15:00,53.4,52.5,30.04,South,186,0.0,2.0,97,0.00,,,0.01,WUHU216DAVISVP2,2013-03-31 16:15:00,
2013-03-31 09:20:00,53.7,52.8,30.04,SSW,209,1.0,3.0,97,0.00,,,0.01,WUHU216DAVISVP2,2013-03-31 16:20:00,
2013-03-31 09:25:00,54.1,53.2,30.04,South,187,1.0,3.0,97,0.00,,,0.01,WUHU216DAVISVP2,2013-03-31 16:25:00,
2013-03-31 09:30:00,54.2,53.3,30.04,South,178,1.0,5.0,97,0.00,,,0.01,WUHU216DAVISVP2,2013-03-31 16:30:00,
2013-03-31 09:35:00,54.2,53.3,30.04,South,178,1.0,5.0,97,0.00,,,0.01,WUHU216DAVISVP2,2013-03-31 16:35:00,
2013-03-31 09:40:00,54.3,53.4,30.04,South,176,2.0,5.0,97,0.00,,,0.01,WUHU216DAVISVP2,2013-03-31 16:40:00,
2013-03-31 09:45:00,54.3,53.4,30.04,South,182,1.0,5.0,97,0.00,,,0.01,WUHU216DAVISVP2,2013-03-31 16:45:00,
2013-03-31 09:50:00,54.4,53.5,30.04,South,171,1.0,4.0,97,0.00,,,0.01,WUHU216DAVISVP2,2013-03-31 16:50:00,
2013-03-31 09:55:00,54.5,53.6,30.04,South,185,3.0,6.0,97,0.00,,,0.01,WUHU216DAVISVP2,2013-03-31 16:55:00,
2013-03-31 10:00:00,54.5,52.5,30.04,South,176,3.0,7.0,93,0.00,,,0.01,WUHU216DAVISVP2,2013-03-31 17:00:00,
2013-03-31 10:05:00,54.7,52.7,30.04,SSW,200,3.0,7.0,93,0.00,,,0.01,WUHU216DAVISVP2,2013-03-31 17:05:00,
2013-03-31 10:10:00,55.0,52.7,30.05,South,177,1.0,7.0,92,0.00,,,0.01,WUHU216DAVISVP2,2013-03-31 17:10:00,
2013-03-31 10:15:00,55.5,52.3,30.05,South,190,1.0,8.0,89,0.00,,,0.01,WUHU216DAVISVP2,2013-03-31 17:15:00,
2013-03-31 10:20:00,55.8,52.6,30.05,SSE,153,1.0,8.0,89,0.00,,,0.01,WUHU216DAVISVP2,2013-03-31 17:20:00,
2013-03-31 10:25:00,56.1,52.6,30.05,SSE,157,4.0,8.0,88,0.00,,,0.01,WUHU216DAVISVP2,2013-03-31 17:25:00,
2013-03-31 10:30:00,56.6,53.4,30.05,South,171,2.0,8.0,89,0.00,,,0.01,WUHU216DAVISVP2,2013-03-31 17:30:00,
2013-03-31 10:35:00,57.2,52.7,30.05,South,179,3.0,7.0,85,0.00,,,0.01,WUHU216DAVISVP2,2013-03-31 17:35:00,
2013-03-31 10:40:00,58.0,52.9,30.05,SSW,209,4.0,8.0,83,0.00,,,0.01,WUHU216DAVISVP2,2013-03-31 17:40:00,
2013-03-31 10:45:00,58.8,53.4,30.05,South,190,1.0,8.0,82,0.00,,,0.01,WUHU216DAVISVP2,2013-03-31 17:45:00,
2013-03-31 10:50:00,59.7,52.9,30.05,South,182,4.0,8.0,78,0.00,,,0.01,WUHU216DAVISVP2,2013-03-31 17:50:00,
2013-03-31 10:55:00,60.4,53.2,30.05,SW,227,2.0,6.0,77,0.00,,,0.01,WUHU216DAVISVP2,2013-03-31 17:55:00,
2013-03-31 11:00:00,60.9,53.4,30.05,South,181,0.0,6.0,76,0.00,,,0.01,WUHU216DAVISVP2,2013-03-31 18:00:00,
2013-03-31 11:05:00,61.5,54.3,30.04,SW,219,0.0,6.0,77,0.00,,,0.01,WUHU216DAVISVP2,2013-03-31 18:05:00,
2013-03-31 11:10:00,62.2,52.7,30.04,SSE,157,1.0,6.0,71,0.00,,,0.01,WUHU216DAVISVP2,2013-03-31 18:10:00,
2013-03-31 11:15:00,62.4,52.6,30.04,South,187,2.0,6.0,70,0.00,,,0.01,WUHU216DAVISVP2,2013-03-31 18:15:00,
2013-03-31 11:20:00,62.5,51.9,30.04,SE,137,2.0,6.0,68,0.00,,,0.01,WUHU216DAVISVP2,2013-03-31 18:20:00,
2013-03-31 11:25:00,62.4,51.5,30.04,South,182,3.0,6.0,67,0.00,,,0.01,WUHU216DAVISVP2,2013-03-31 18:25:00,
2013-03-31 11:30:00,62.0,51.1,30.05,SSW,192,5.0,8.0,67,0.00,,,0.01,WUHU216DAVISVP2,2013-03-31 18:30:00,
2013-03-31 11:35:00,61.7,50.8,30.05,South,182,5.0,8.0,67,0.00,,,0.01,WUHU216DAVISVP2,2013-03-31 18:35:00,
2013-03-31 11:40:00,61.3,50.6,30.05,South,177,3.0,8.0,68,0.00,,,0.01,WUHU216DAVISVP2,2013-03-31 18:40:00,
2013-03-31 11:45:00,61.0,50.1,30.05,SSE,155,3.0,7.0,67,0.00,,,0.01,WUHU216DAVISVP2,2013-03-31 18:45:00,
2013-03-31 11:50:00,61.0,51.3,30.05,South,184,1.0,7.0,70,0.00,,,0.01,WUHU216DAVISVP2,2013-03-31 18:50:00,
2013-03-31 11:55:00,61.3,52.0,30.05,SSW,207,2.0,7.0,71,0.00,,,0.01,WUHU216DAVISVP2,2013-03-31 18:55:00,
2013-03-31 12:00:00,61.5,51.8,30.05,SSE,167,3.0,6.0,70,0.00,,,0.01,WUHU216DAVISVP2,2013-03-31 19:00:00,
2013-03-31 12:05:00,61.5,51.4,30.05,South,185,1.0,6.0,69,0.00,,,0.01,WUHU216DAVISVP2,2013-03-31 19:05:00,
2013-03-31 12:10:00,61.7,52.0,30.06,SW,232,1.0,6.0,70,0.00,,,0.01,WUHU216DAVISVP2,2013-03-31 19:10:00,
2013-03-31 12:15:00,61.5,52.9,30.06,SSW,202,2.0,10.0,73,0.00,,,0.01,WUHU216DAVISVP2,2013-03-31 19:15:00,
2013-03-31 12:20:00,61.2,52.6,30.05,SSW,210,2.0,10.0,73,0.00,,,0.01,WUHU216DAVISVP2,2013-03-31 19:20:00,
2013-03-31 12:25:00,60.9,52.7,30.05,WSW,238,3.0,10.0,74,0.00,,,0.01,WUHU216DAVISVP2,2013-03-31 19:25:00,
2013-03-31 12:30:00,60.7,52.5,30.05,SSW,202,4.0,10.0,74,0.00,,,0.01,WUHU216DAVISVP2,2013-03-31 19:30:00,
2013-03-31 12:35:00,60.5,51.8,30.05,SSW,199,3.0,7.0,73,0.00,,,0.01,WUHU216DAVISVP2,2013-03-31 19:35:00,
2013-03-31 12:40:00,60.5,51.8,30.05,SSW,194,2.0,8.0,73,0.00,,,0.01,WUHU216DAVISVP2,2013-03-31 19:40:00,
2013-03-31 12:45:00,60.7,52.5,30.05,SE,146,2.0,8.0,74,0.00,,,0.01,WUHU216DAVISVP2,2013-03-31 19:45:00,
2013-03-31 12:50:00,61.4,52.4,30.05,SW,221,4.0,8.0,72,0.00,,,0.01,WUHU216DAVISVP2,2013-03-31 19:50:00,
2013-03-31 12:55:00,62.1,52.0,30.06,South,182,5.0,9.0,69,0.00,,,0.01,WUHU216DAVISVP2,2013-03-31 19:55:00,
2013-03-31 13:00:00,61.8,51.7,30.05,SSW,213,3.0,10.0,69,0.00,,,0.01,WUHU216DAVISVP2,2013-03-31 20:00:00,
2013-03-31 13:05:00,61.0,51.3,30.05,SSE,155,6.0,10.0,70,0.00,,,0.01,WUHU216DAVISVP2,2013-03-31 20:05:00,
2013-03-31 13:10:00,60.4,51.5,30.05,South,169,2.0,10.0,72,0.00,,,0.01,WUHU216DAVISVP2,2013-03-31 20:10:00,
2013-03-31 13:15:00,60.2,51.3,30.05,WSW,240,4.0,10.0,72,0.00,,,0.01,WUHU216DAVISVP2,2013-03-31 20:15:00,
2013-03-31 13:20:00,60.4,52.2,30.05,SSE,153,4.0,9.0,74,0.00,,,0.01,WUHU216DAVISVP2,2013-03-31 20:20:00,
2013-03-31 13:25:00,60.9,51.9,30.05,SSE,167,7.0,9.0,72,0.00,,,0.01,WUHU216DAVISVP2,2013-03-31 20:25:00,
2013-03-31 13:30:00,60.3,51.7,30.04,SW,216,6.0,14.0,73,0.00,,,0.01,WUHU216DAVISVP2,2013-03-31 20:30:00,
2013-03-31 13:35:00,60.0,51.8,30.05,South,173,4.0,14.0,74,0.00,,,0.01,WUHU216DAVISVP2,2013-03-31 20:35:00,
2013-03-31 13:40:00,59.3,51.4,30.04,SW,214,4.0,14.0,75,0.00,,,0.01,WUHU216DAVISVP2,2013-03-31 20:40:00,
2013-03-31 13:45:00,58.9,51.3,30.04,SSW,207,5.0,9.0,76,0.00,,,0.01,WUHU216DAVISVP2,2013-03-31 20:45:00,
2013-03-31 13:50:00,59.1,51.9,30.04,SSW,196,3.0,9.0,77,0.00,,,0.01,WUHU216DAVISVP2,2013-03-31 20:50:00,
2013-03-31 13:55:00,59.0,51.8,30.03,South,185,8.0,10.0,77,0.00,,,0.01,WUHU216DAVISVP2,2013-03-31 20:55:00,
2013-03-31 14:00:00,58.9,51.7,30.03,SSE,167,4.0,11.0,77,0.00,,,0.01,WUHU216DAVISVP2,2013-03-31 21:00:00,
2013-03-31 14:05:00,59.1,51.5,30.03,SSW,192,4.0,11.0,76,0.00,,,0.01,WUHU216DAVISVP2,2013-03-31 21:05:00,
2013-03-31 14:10:00,59.4,52.2,30.03,South,172,4.0,11.0,77,0.00,,,0.01,WUHU216DAVISVP2,2013-03-31 21:10:00,
2013-03-31 14:15:00,59.4,52.3,30.03,South,189,4.0,11.0,77,0.00,,,0.01,WUHU216DAVISVP2,2013-03-31 21:15:00,
2013-03-31 14:20:00,59.4,52.3,30.03,SSE,163,5.0,10.0,77,0.00,,,0.01,WUHU216DAVISVP2,2013-03-31 21:20:00,
2013-03-31 14:25:00,59.4,51.9,30.03,South,185,3.0,10.0,76,0.00,,,0.01,WUHU216DAVISVP2,2013-03-31 21:25:00,
2013-03-31 14:30:00,59.4,52.3,30.02,SSW,211,9.0,12.0,77,0.00,,,0.01,WUHU216DAVISVP2,2013-03-31 21:30:00,
2013-03-31 14:35:00,60.1,52.6,30.02,SSW,201,7.0,12.0,76,0.00,,,0.01,WUHU216DAVISVP2,2013-03-31 21:35:00,
2013-03-31 14:40:00,60.4,52.2,30.02,South,179,7.0,13.0,74,0.00,,,0.01,WUHU216DAVISVP2,2013-03-31 21:40:00,
2013-03-31 14:45:00,60.0,52.2,30.02,SW,215,6.0,13.0,75,0.00,,,0.01,WUHU216DAVISVP2,2013-03-31 21:45:00,
2013-03-31 14:50:00,60.0,52.1,30.01,South,173,6.0,13.0,75,0.00,,,0.01,WUHU216DAVISVP2,2013-03-31 21:50:00,
2013-03-31 14:55:00,60.4,52.1,30.01,South,178,8.0,14.0,74,0.00,,,0.01,WUHU216DAVISVP2,2013-03-31 21:55:00,
2013-03-31 15:00:00,60.1,52.1,30.02,South,190,7.0,15.0,75,0.00,,,0.01,WUHU216DAVISVP2,2013-03-31 22:00:00,
2013-03-31 15:05:00,59.8,52.3,30.02,South,189,10.0,19.0,76,0.00,,,0.01,WUHU216DAVISVP2,2013-03-31 22:05:00,
2013-03-31 15:10:00,59.6,52.5,30.01,SSW,196,7.0,19.0,77,0.00,,,0.01,WUHU216DAVISVP2,2013-03-31 22:10:00,
2013-03-31 15:15:00,59.9,52.8,30.01,SSW,200,6.0,19.0,77,0.00,,,0.01,WUHU216DAVISVP2,2013-03-31 22:15:00,
2013-03-31 15:20:00,60.0,52.9,30.01,South,180,5.0,19.0,77,0.00,,,0.01,WUHU216DAVISVP2,2013-03-31 22:20:00,
2013-03-31 15:25:00,60.4,52.9,30.00,South,176,5.0,13.0,76,0.00,,,0.01,WUHU216DAVISVP2,2013-03-31 22:25:00,
2013-03-31 15:30:00,61.0,54.2,30.00,South,176,6.0,13.0,78,0.00,,,0.01,WUHU216DAVISVP2,2013-03-31 22:30:00,
2013-03-31 15:35:00,61.0,52.8,30.00,SSE,165,5.0,13.0,74,0.00,,,0.01,WUHU216DAVISVP2,2013-03-31 22:35:00,
2013-03-31 15:40:00,60.8,52.6,30.00,South,182,6.0,13.0,74,0.00,,,0.01,WUHU216DAVISVP2,2013-03-31 22:40:00,
2013-03-31 15:45:00,60.7,52.8,30.00,South,171,3.0,13.0,75,0.00,,,0.01,WUHU216DAVISVP2,2013-03-31 22:45:00,
2013-03-31 15:50:00,60.7,52.5,30.00,South,185,5.0,13.0,74,0.00,,,0.01,WUHU216DAVISVP2,2013-03-31 22:50:00,
2013-03-31 15:55:00,60.9,53.0,30.00,South,184,5.0,13.0,75,0.00,,,0.01,WUHU216DAVISVP2,2013-03-31 22:55:00,
2013-03-31 16:00:00,60.7,52.8,30.00,SSE,157,4.0,13.0,75,0.00,,,0.01,WUHU216DAVISVP2,2013-03-31 23:00:00,
2013-03-31 16:05:00,61.0,53.0,29.99,South,184,5.0,12.0,75,0.00,,,0.01,WUHU216DAVISVP2,2013-03-31 23:05:00,
2013-03-31 16:10:00,60.6,52.3,29.99,South,185,9.0,16.0,74,0.00,,,0.01,WUHU216DAVISVP2,2013-03-31 23:10:00,
2013-03-31 16:15:00,60.0,52.5,29.99,SW,233,7.0,16.0,76,0.00,,,0.01,WUHU216DAVISVP2,2013-03-31 23:15:00,
2013-03-31 16:20:00,60.2,52.3,29.99,SE,142,7.0,16.0,75,0.00,,,0.01,WUHU216DAVISVP2,2013-03-31 23:20:00,
2013-03-31 16:25:00,60.0,52.1,29.99,SW,217,4.0,16.0,75,0.00,,,0.01,WUHU216DAVISVP2,2013-03-31 23:25:00,
2013-03-31 16:30:00,60.4,52.8,29.99,South,177,6.0,13.0,76,0.00,,,0.01,WUHU216DAVISVP2,2013-03-31 23:30:00,
2013-03-31 16:35:00,60.6,52.7,29.99,South,183,4.0,13.0,75,0.00,,,0.01,WUHU216DAVISVP2,2013-03-31 23:35:00,
2013-03-31 16:40:00,60.4,52.5,29.99,SSE,168,4.0,12.0,75,0.00,,,0.01,WUHU216DAVISVP2,2013-03-31 23:40:00,
2013-03-31 16:45:00,60.3,52.7,29.99,SSE,147,7.0,15.0,76,0.00,,,0.01,WUHU216DAVISVP2,2013-03-31 23:45:00,
2013-03-31 16:50:00,59.8,52.3,29.99,South,183,4.0,15.0,76,0.00,,,0.01,WUHU216DAVISVP2,2013-03-31 23:50:00,
2013-03-31 16:55:00,59.7,52.2,29.99,South,174,6.0,15.0,76,0.00,,,0.01,WUHU216DAVISVP2,2013-03-31 23:55:00,
2013-03-31 17:00:00,59.4,52.3,29.99,SSE,158,4.0,15.0,77,0.00,,,0.01,WUHU216DAVISVP2,2013-04-01 00:00:00,
2013-03-31 17:05:00,58.5,51.7,29.99,SSW,198,4.0,14.0,78,0.00,,,0.01,WUHU216DAVISVP2,2013-04-01 00:05:00,
2013-03-31 17:10:00,58.2,51.8,29.99,SSW,205,8.0,15.0,79,0.00,,,0.01,WUHU216DAVISVP2,2013-04-01 00:10:00,
2013-03-31 17:15:00,58.2,51.8,29.99,South,190,0.0,15.0,79,0.00,,,0.01,WUHU216DAVISVP2,2013-04-01 00:15:00,
2013-03-31 17:20:00,58.2,51.4,29.99,South,169,4.0,15.0,78,0.00,,,0.01,WUHU216DAVISVP2,2013-04-01 00:20:00,
2013-03-31 17:25:00,58.1,51.3,29.99,South,188,6.0,15.0,78,0.00,,,0.01,WUHU216DAVISVP2,2013-04-01 00:25:00,
2013-03-31 17:30:00,58.4,51.6,29.99,SSE,149,3.0,11.0,78,0.00,,,0.01,WUHU216DAVISVP2,2013-04-01 00:30:00,
2013-03-31 17:35:00,58.0,51.2,29.99,SW,215,5.0,13.0,78,0.00,,,0.01,WUHU216DAVISVP2,2013-04-01 00:35:00,
2013-03-31 17:40:00,57.6,51.1,29.99,SW,214,1.0,13.0,79,0.00,,,0.01,WUHU216DAVISVP2,2013-04-01 00:40:00,
2013-03-31 17:45:00,57.3,51.2,29.99,SW,223,4.0,14.0,80,0.00,,,0.01,WUHU216DAVISVP2,2013-04-01 00:45:00,
2013-03-31 17:50:00,57.0,51.6,29.99,SSW,195,3.0,14.0,82,0.00,,,0.01,WUHU216DAVISVP2,2013-04-01 00:50:00,
2013-03-31 17:55:00,56.7,51.3,29.99,SSW,206,2.0,14.0,82,0.00,,,0.01,WUHU216DAVISVP2,2013-04-01 00:55:00,
2013-03-31 18:00:00,56.8,51.7,29.99,SSW,212,7.0,14.0,83,0.00,,,0.01,WUHU216DAVISVP2,2013-04-01 01:00:00,
2013-03-31 18:05:00,56.8,52.0,29.99,SSW,195,2.0,13.0,84,0.00,,,0.01,WUHU216DAVISVP2,2013-04-01 01:05:00,
2013-03-31 18:10:00,56.9,51.8,29.99,WSW,246,4.0,13.0,83,0.00,,,0.01,WUHU216DAVISVP2,2013-04-01 01:10:00,
2013-03-31 18:15:00,56.7,51.9,29.99,SSE,151,2.0,12.0,84,0.00,,,0.01,WUHU216DAVISVP2,2013-04-01 01:15:00,
2013-03-31 18:20:00,56.3,51.8,29.99,SE,136,1.0,12.0,85,0.00,,,0.01,WUHU216DAVISVP2,2013-04-01 01:20:00,
2013-03-31 18:25:00,56.1,51.7,30.00,South,179,4.0,12.0,85,0.00,,,0.01,WUHU216DAVISVP2,2013-04-01 01:25:00,
2013-03-31 18:30:00,55.7,51.6,30.00,SW,222,3.0,12.0,86,0.00,,,0.01,WUHU216DAVISVP2,2013-04-01 01:30:00,
2013-03-31 18:35:00,55.6,51.5,30.00,SSW,194,4.0,7.0,86,0.00,,,0.01,WUHU216DAVISVP2,2013-04-01 01:35:00,
2013-03-31 18:40:00,55.4,51.6,30.00,South,176,3.0,7.0,87,0.00,,,0.01,WUHU216DAVISVP2,2013-04-01 01:40:00,
2013-03-31 18:45:00,55.2,51.4,30.00,SW,215,2.0,7.0,87,0.00,,,0.01,WUHU216DAVISVP2,2013-04-01 01:45:00,
2013-03-31 18:50:00,55.1,51.3,30.00,SE,128,2.0,7.0,87,0.00,,,0.01,WUHU216DAVISVP2,2013-04-01 01:50:00,
2013-03-31 18:55:00,54.9,51.4,30.00,SW,229,2.0,6.0,88,0.00,,,0.01,WUHU216DAVISVP2,2013-04-01 01:55:00,
2013-03-31 19:00:00,54.8,51.6,30.00,South,188,3.0,6.0,89,0.00,,,0.01,WUHU216DAVISVP2,2013-04-01 02:00:00,
2013-03-31 19:05:00,54.7,51.5,30.00,South,178,1.0,6.0,89,0.00,,,0.01,WUHU216DAVISVP2,2013-04-01 02:05:00,
2013-03-31 19:10:00,54.4,51.2,30.00,South,182,0.0,6.0,89,0.00,,,0.01,WUHU216DAVISVP2,2013-04-01 02:10:00,
2013-03-31 19:15:00,54.4,51.5,30.00,SSW,195,2.0,5.0,90,0.00,,,0.01,WUHU216DAVISVP2,2013-04-01 02:15:00,
2013-03-31 19:20:00,54.4,51.8,30.00,SSE,165,3.0,5.0,91,0.00,,,0.01,WUHU216DAVISVP2,2013-04-01 02:20:00,
2013-03-31 19:25:00,54.3,51.7,30.00,South,182,4.0,6.0,91,0.00,,,0.01,WUHU216DAVISVP2,2013-04-01 02:25:00,
2013-03-31 19:30:00,54.2,51.9,30.00,SSW,200,4.0,6.0,92,0.00,,,0.01,WUHU216DAVISVP2,2013-04-01 02:30:00,
2013-03-31 19:35:00,54.0,51.4,30.00,SSE,159,2.0,8.0,91,0.00,,,0.01,WUHU216DAVISVP2,2013-04-01 02:35:00,
2013-03-31 19:40:00,53.9,51.6,30.00,SSW,204,1.0,8.0,92,0.00,,,0.01,WUHU216DAVISVP2,2013-04-01 02:40:00,
2013-03-31 19:45:00,53.9,51.6,30.00,SSE,153,1.0,8.0,92,0.00,,,0.01,WUHU216DAVISVP2,2013-04-01 02:45:00,
2013-03-31 19:50:00,53.8,51.5,30.00,South,182,2.0,8.0,92,0.00,,,0.01,WUHU216DAVISVP2,2013-04-01 02:50:00,
2013-03-31 19:55:00,53.7,51.4,30.00,SSE,155,3.0,5.0,92,0.00,,,0.01,WUHU216DAVISVP2,2013-04-01 02:55:00,
2013-03-31 20:00:00,53.6,51.3,30.00,SW,229,3.0,8.0,92,0.00,,,0.01,WUHU216DAVISVP2,2013-04-01 03:00:00,
2013-03-31 20:05:00,53.6,51.3,30.00,SW,219,0.0,8.0,92,0.00,,,0.01,WUHU216DAVISVP2,2013-04-01 03:05:00,
2013-03-31 20:10:00,53.6,51.3,30.00,SSW,210,1.0,8.0,92,0.00,,,0.01,WUHU216DAVISVP2,2013-04-01 03:10:00,
2013-03-31 20:15:00,53.6,51.3,30.00,South,177,2.0,8.0,92,0.00,,,0.01,WUHU216DAVISVP2,2013-04-01 03:15:00,
2013-03-31 20:20:00,53.5,51.2,30.00,SSE,147,0.0,6.0,92,0.00,,,0.01,WUHU216DAVISVP2,2013-04-01 03:20:00,
2013-03-31 20:25:00,53.5,51.2,30.00,South,171,1.0,6.0,92,0.00,,,0.01,WUHU216DAVISVP2,2013-04-01 03:25:00,
2013-03-31 20:30:00,53.5,51.2,30.00,South,180,0.0,6.0,92,0.00,,,0.01,WUHU216DAVISVP2,2013-04-01 03:30:00,
2013-03-31 20:35:00,53.5,51.2,30.01,SSW,205,0.0,4.0,92,0.00,,,0.01,WUHU216DAVISVP2,2013-04-01 03:35:00,
2013-03-31 20:40:00,53.5,51.2,30.01,SW,217,1.0,4.0,92,0.00,,,0.01,WUHU216DAVISVP2,2013-04-01 03:40:00,
2013-03-31 20:45:00,53.5,51.2,30.01,South,191,2.0,4.0,92,0.00,,,0.01,WUHU216DAVISVP2,2013-04-01 03:45:00,
2013-03-31 20:50:00,53.5,51.2,30.01,SSW,202,2.0,4.0,92,0.00,,,0.01,WUHU216DAVISVP2,2013-04-01 03:50:00,
2013-03-31 20:55:00,53.5,51.2,30.01,SSW,209,1.0,7.0,92,0.00,,,0.01,WUHU216DAVISVP2,2013-04-01 03:55:00,
2013-03-31 21:00:00,53.4,51.4,30.02,SW,218,1.0,7.0,93,0.00,,,0.01,WUHU216DAVISVP2,2013-04-01 04:00:00,
2013-03-31 21:05:00,53.4,51.4,30.02,SW,217,0.0,7.0,93,0.00,,,0.01,WUHU216DAVISVP2,2013-04-01 04:05:00,
2013-03-31 21:10:00,53.4,51.4,30.02,South,178,0.0,7.0,93,0.00,,,0.01,WUHU216DAVISVP2,2013-04-01 04:10:00,
2013-03-31 21:12:00,53.4,51.4,30.02,South,178,0.0,4.0,93,0.00,,,0.01,WUHU216DAVISVP2,2013-04-01 04:12:00,
2013-03-31 21:17:00,53.4,51.4,30.02,SSW,212,1.0,3.0,93,0.00,,,0.01,WUHU216DAVISVP2,2013-04-01 04:17:00,
2013-03-31 21:22:00,53.3,51.3,30.02,South,190,0.0,3.0,93,0.00,,,0.01,WUHU216DAVISVP2,2013-04-01 04:22:00,
2013-03-31 21:27:00,53.3,51.3,30.03,SSW,194,0.0,3.0,93,0.00,,,0.01,WUHU216DAVISVP2,2013-04-01 04:27:00,
2013-03-31 21:32:00,53.3,51.3,30.03,SSW,202,0.0,3.0,93,0.00,,,0.01,WUHU216DAVISVP2,2013-04-01 04:32:00,
2013-03-31 21:37:00,53.2,51.2,30.03,SSW,212,0.0,3.0,93,0.00,,,0.01,WUHU216DAVISVP2,2013-04-01 04:37:00,
2013-03-31 21:42:00,53.2,51.2,30.03,South,182,1.0,5.0,93,0.00,,,0.01,WUHU216DAVISVP2,2013-04-01 04:42:00,
2013-03-31 21:47:00,53.1,51.1,30.03,SSW,193,0.0,5.0,93,0.00,,,0.01,WUHU216DAVISVP2,2013-04-01 04:47:00,
2013-03-31 21:52:00,53.0,51.3,30.03,SSE,167,2.0,5.0,94,0.00,,,0.01,WUHU216DAVISVP2,2013-04-01 04:52:00,
2013-03-31 21:57:00,52.9,51.2,30.03,SSE,153,0.0,5.0,94,0.00,,,0.01,WUHU216DAVISVP2,2013-04-01 04:57:00,
2013-03-31 22:02:00,52.8,51.1,30.03,South,175,0.0,4.0,94,0.00,,,0.01,WUHU216DAVISVP2,2013-04-01 05:02:00,
2013-03-31 22:07:00,52.7,51.0,30.03,SSW,200,3.0,4.0,94,0.00,,,0.01,WUHU216DAVISVP2,2013-04-01 05:07:00,
2013-03-31 22:12:00,52.6,51.2,30.03,South,188,0.0,4.0,95,0.00,,,0.01,WUHU216DAVISVP2,2013-04-01 05:12:00,
2013-03-31 22:17:00,52.6,51.2,30.03,SSW,205,0.0,4.0,95,0.00,,,0.01,WUHU216DAVISVP2,2013-04-01 05:17:00,
2013-03-31 22:22:00,52.6,51.2,30.03,SSW,205,0.0,4.0,95,0.00,,,0.01,WUHU216DAVISVP2,2013-04-01 05:22:00,
2013-03-31 22:27:00,52.6,51.2,30.03,SSW,211,0.0,3.0,95,0.00,,,0.01,WUHU216DAVISVP2,2013-04-01 05:27:00,
2013-03-31 22:32:00,52.6,51.2,30.03,South,173,1.0,3.0,95,0.00,,,0.01,WUHU216DAVISVP2,2013-04-01 05:32:00,
2013-03-31 22:37:00,52.7,51.3,30.03,SSW,206,3.0,8.0,95,0.00,,,0.01,WUHU216DAVISVP2,2013-04-01 05:37:00,
2013-03-31 22:42:00,52.6,51.2,30.03,SSW,202,1.0,8.0,95,0.00,,,0.01,WUHU216DAVISVP2,2013-04-01 05:42:00,
2013-03-31 22:47:00,52.6,51.2,30.03,SSW,203,2.0,8.0,95,0.02,,,0.03,WUHU216DAVISVP2,2013-04-01 05:47:00,
2013-03-31 22:52:00,52.5,51.1,30.03,SSW,210,0.0,7.0,95,0.02,,,0.03,WUHU216DAVISVP2,2013-04-01 05:52:00,
2013-03-31 22:57:00,52.4,51.3,30.03,SSW,209,4.0,7.0,96,0.02,,,0.03,WUHU216DAVISVP2,2013-04-01 05:57:00,
2013-03-31 23:02:00,52.4,51.3,30.03,South,187,2.0,7.0,96,0.02,,,0.03,WUHU216DAVISVP2,2013-04-01 06:02:00,
2013-03-31 23:07:00,52.4,51.3,30.03,SW,229,1.0,7.0,96,0.05,,,0.06,WUHU216DAVISVP2,2013-04-01 06:07:00,
2013-03-31 23:12:00,52.5,51.4,30.03,West,259,0.0,7.0,96,0.05,,,0.06,WUHU216DAVISVP2,2013-04-01 06:12:00,
2013-03-31 23:17:00,52.5,51.4,30.03,SSW,200,0.0,7.0,96,0.06,,,0.07,WUHU216DAVISVP2,2013-04-01 06:17:00,
2013-03-31 23:22:00,52.5,51.4,30.03,South,174,1.0,6.0,96,0.07,,,0.08,WUHU216DAVISVP2,2013-04-01 06:22:00,
2013-03-31 23:27:00,52.5,51.4,30.03,SW,221,0.0,5.0,96,0.07,,,0.08,WUHU216DAVISVP2,2013-04-01 06:27:00,
2013-03-31 23:33:00,52.5,51.4,30.03,SSW,213,1.0,6.0,96,0.07,,,0.08,WUHU216DAVISVP2,2013-04-01 06:33:00,
2013-03-31 23:38:00,52.5,51.4,30.03,SW,214,1.0,7.0,96,0.07,,,0.08,WUHU216DAVISVP2,2013-04-01 06:38:00,
2013-03-31 23:43:00,52.5,51.4,30.03,South,169,0.0,7.0,96,0.06,,,0.08,WUHU216DAVISVP2,2013-04-01 06:43:00,
2013-03-31 23:48:00,52.6,51.5,30.03,South,185,2.0,7.0,96,0.06,,,0.09,WUHU216DAVISVP2,2013-04-01 06:48:00,
2013-03-31 23:53:00,52.6,51.5,30.03,SSW,198,0.0,6.0,96,0.06,,,0.09,WUHU216DAVISVP2,2013-04-01 06:53:00,
2013-03-31 23:58:00,52.6,51.5,30.03,South,185,1.0,6.0,96,0.06,,,0.09,WUHU216DAVISVP2,2013-04-01 06:58:00,